createdAt,value
2019-04-11T00:00:09.396Z,99.99
2019-04-11T00:01:10.085Z,99.99
2019-04-11T00:02:09.233Z,99.99
2019-04-11T00:03:09.274Z,99.99
2019-04-11T00:04:09.968Z,99.99
2019-04-11T00:05:08.987Z,99.99
2019-04-11T00:06:09.587Z,99.99
2019-04-11T00:07:08.855Z,99.99
2019-04-11T00:08:10.049Z,99.99
2019-04-11T00:09:08.652Z,99.99
2019-04-11T00:10:08.570Z,99.99
2019-04-11T00:11:09.462Z,99.99
2019-04-11T00:12:08.426Z,99.99
2019-04-11T00:13:17.344Z,99.99
2019-04-11T00:14:08.519Z,99.99
2019-04-11T00:15:08.603Z,99.99
2019-04-11T00:16:08.813Z,99.99
2019-04-11T00:17:07.995Z,99.99
2019-04-11T00:18:08.249Z,99.99
2019-04-11T00:19:07.820Z,99.99
2019-04-11T00:20:07.762Z,99.99
2019-04-11T00:21:08.737Z,99.99
2019-04-11T00:22:07.571Z,99.99
2019-04-11T00:23:08.124Z,99.99
2019-04-11T00:24:07.405Z,99.99
2019-04-11T00:25:07.427Z,99.99
2019-04-11T00:26:08.319Z,99.99
2019-04-11T00:27:07.155Z,99.99
2019-04-11T00:28:07.774Z,99.99
2019-04-11T00:29:07.030Z,99.99
2019-04-11T00:30:07.983Z,99.99
2019-04-11T00:31:06.821Z,99.99
2019-04-11T00:32:09.188Z,99.99
2019-04-11T00:33:07.788Z,99.99
2019-04-11T00:34:06.905Z,99.99
2019-04-11T00:35:07.143Z,99.99
2019-04-11T00:36:06.403Z,99.99
2019-04-11T00:37:06.321Z,99.99
2019-04-11T00:38:06.238Z,99.99
2019-04-11T00:39:06.155Z,99.99
2019-04-11T00:40:06.076Z,99.99
2019-04-11T00:41:05.986Z,99.99
2019-04-11T00:42:06.191Z,99.99
2019-04-11T00:43:05.818Z,99.99
2019-04-11T00:44:06.364Z,99.99
2019-04-11T00:45:05.653Z,99.99
2019-04-11T00:46:05.569Z,99.99
2019-04-11T00:47:05.484Z,99.99
2019-04-11T00:48:05.804Z,99.99
2019-04-11T00:49:06.217Z,99.99
2019-04-11T00:50:05.614Z,99.99
2019-04-11T00:51:05.150Z,99.99
2019-04-11T00:52:05.070Z,99.99
2019-04-11T00:53:05.572Z,99.99
2019-04-11T00:54:04.902Z,99.99
2019-04-11T00:55:05.051Z,99.99
2019-04-11T00:56:04.731Z,99.99
2019-04-11T00:57:04.657Z,99.99
2019-04-11T00:58:05.590Z,99.99
2019-04-11T00:59:05.762Z,99.99
2019-04-11T01:00:04.864Z,99.99
2019-04-11T01:05:03.979Z,99.99
2019-04-11T01:06:03.902Z,99.99
2019-04-11T01:07:04.755Z,99.99
2019-04-11T01:08:03.726Z,99.99
2019-04-11T01:09:04.131Z,99.99
2019-04-11T01:10:04.418Z,99.99
2019-04-11T01:11:03.653Z,99.99
2019-04-11T01:12:04.568Z,99.99
2019-04-11T01:18:55.241Z,99.99
2019-04-11T01:19:55.315Z,99.99
2019-04-11T01:20:55.702Z,99.99
2019-04-11T01:21:55.074Z,99.99
2019-04-11T01:22:54.889Z,99.99
2019-04-11T01:23:55.450Z,99.99
2019-04-11T01:24:55.790Z,99.99
2019-04-11T01:25:54.944Z,99.99
2019-04-11T01:26:54.552Z,99.99
2019-04-11T01:27:54.467Z,99.99
2019-04-11T01:28:55.322Z,99.99
2019-04-11T01:29:54.298Z,99.99
2019-04-11T01:30:55.433Z,99.99
2019-04-11T01:31:54.140Z,99.99
2019-04-11T01:32:54.873Z,99.99
2019-04-11T01:33:53.964Z,99.99
2019-04-11T01:34:54.981Z,99.99
2019-04-11T01:35:53.797Z,99.99
2019-04-11T01:36:53.711Z,99.99
2019-04-11T01:37:53.627Z,99.99
2019-04-11T01:38:54.728Z,99.99
2019-04-11T01:39:53.704Z,99.99
2019-04-11T01:40:54.056Z,99.99
2019-04-11T01:41:58.567Z,99.99
2019-04-11T01:42:53.372Z,99.99
2019-04-11T01:44:02.102Z,99.99
2019-04-11T01:44:54.720Z,99.99
2019-04-11T01:45:53.793Z,99.99
2019-04-11T01:46:54.101Z,99.99
2019-04-11T01:47:53.312Z,99.99
2019-04-11T01:48:52.703Z,99.99
2019-04-11T01:49:52.619Z,99.99
2019-04-11T01:50:53.574Z,99.99
2019-04-11T01:51:52.450Z,99.99
2019-04-11T01:52:52.985Z,99.99
2019-04-11T01:53:52.281Z,99.99
2019-04-11T01:54:52.296Z,99.99
2019-04-11T01:55:52.546Z,99.99
2019-04-11T01:56:52.031Z,99.99
2019-04-11T01:57:51.997Z,99.99
2019-04-11T01:58:53.036Z,99.99
2019-04-11T01:59:51.778Z,99.99
2019-04-11T02:00:52.556Z,99.99
2019-04-11T02:01:52.609Z,99.99
2019-04-11T02:02:52.819Z,99.99
2019-04-11T02:03:51.734Z,99.99
2019-04-11T02:04:52.313Z,99.99
2019-04-11T02:05:51.593Z,99.99
2019-04-11T02:06:51.187Z,99.99
2019-04-11T02:07:51.118Z,99.99
2019-04-11T02:08:51.374Z,99.99
2019-04-11T02:09:50.949Z,99.99
2019-04-11T02:10:50.895Z,99.99
2019-04-11T02:11:51.924Z,99.99
2019-04-11T02:12:51.121Z,99.99
2019-04-11T02:13:50.604Z,99.99
2019-04-11T02:14:50.515Z,99.99
2019-04-11T02:15:50.430Z,99.99
2019-04-11T02:16:52.017Z,99.99
2019-04-11T02:17:50.911Z,99.99
2019-04-11T02:18:50.178Z,99.99
2019-04-11T02:19:50.299Z,99.99
2019-04-11T02:20:50.010Z,99.99
2019-04-11T02:21:49.928Z,99.99
2019-04-11T02:22:50.762Z,99.99
2019-04-11T02:23:49.799Z,99.99
2019-04-11T02:24:50.173Z,99.99
2019-04-11T02:25:49.589Z,99.99
2019-04-11T02:26:50.370Z,99.99
2019-04-11T02:27:50.520Z,99.99
2019-04-11T02:28:49.337Z,99.99
2019-04-11T02:29:49.252Z,99.99
2019-04-11T02:30:51.026Z,99.99
2019-04-11T02:31:50.599Z,99.99
2019-04-11T02:32:49.854Z,99.99
2019-04-11T02:33:49.419Z,99.99
2019-04-11T02:34:50.740Z,99.99
2019-04-11T02:35:49.514Z,99.99
2019-04-11T02:36:49.033Z,99.99
2019-04-11T02:37:51.791Z,99.99
2019-04-11T02:38:54.052Z,99.99
2019-04-11T02:39:49.466Z,99.99
2019-04-11T02:40:49.879Z,99.99
2019-04-11T02:41:48.243Z,99.99
2019-04-11T02:42:49.719Z,99.99
2019-04-11T02:43:49.089Z,99.99
2019-04-11T02:45:03.416Z,99.99
2019-04-11T02:45:59.996Z,99.99
2019-04-11T02:46:58.027Z,99.99
2019-04-11T02:47:48.606Z,99.99
2019-04-11T02:48:47.654Z,99.99
2019-04-11T02:49:47.738Z,99.99
2019-04-11T02:50:47.999Z,99.99
2019-04-11T02:51:49.359Z,99.99
2019-04-11T02:52:47.538Z,99.99
2019-04-11T02:53:47.404Z,99.99
2019-04-11T02:54:47.483Z,99.99
2019-04-11T02:55:47.443Z,99.99
2019-04-11T02:56:49.084Z,99.99
2019-04-11T02:57:48.319Z,99.99
2019-04-11T02:58:48.157Z,99.99
2019-04-11T02:59:48.931Z,99.99
2019-04-11T03:00:46.960Z,99.99
2019-04-11T03:01:48.416Z,99.99
2019-04-11T03:02:47.905Z,99.99
2019-04-11T03:03:47.461Z,99.99
2019-04-11T03:04:47.936Z,99.99
2019-04-11T03:05:46.979Z,99.99
2019-04-11T03:06:47.787Z,99.99
2019-04-11T03:07:47.622Z,99.99
2019-04-11T03:08:46.468Z,99.99
2019-04-11T03:09:48.573Z,99.99
2019-04-11T03:11:47.257Z,99.99
2019-04-11T03:12:46.449Z,99.99
2019-04-11T03:13:46.437Z,99.99
2019-04-11T03:15:04.323Z,99.99
2019-04-11T03:16:03.548Z,99.99
2019-04-11T03:16:56.365Z,99.99
2019-04-11T03:17:47.854Z,99.99
2019-04-11T03:18:59.336Z,99.99
2019-04-11T03:19:59.229Z,99.99
2019-04-11T03:20:49.792Z,99.99
2019-04-11T03:21:46.956Z,99.99
2019-04-11T03:22:48.812Z,99.99
2019-04-11T03:23:44.691Z,99.99
2019-04-11T03:24:44.622Z,99.99
2019-04-11T03:25:45.017Z,99.99
2019-04-11T03:26:45.769Z,99.99
2019-04-11T03:27:45.213Z,99.99
2019-04-11T03:29:45.277Z,99.99
2019-04-11T03:31:06.849Z,99.99
2019-04-11T03:32:34.143Z,99.99
2019-04-11T03:34:24.276Z,99.99
2019-04-11T03:35:51.893Z,99.99
2019-04-11T03:37:19.330Z,99.99
2019-04-11T03:38:07.032Z,99.99
2019-04-11T03:39:06.803Z,99.99
2019-04-11T03:40:00.633Z,99.99
2019-04-11T03:41:05.907Z,99.99
2019-04-11T03:41:59.376Z,99.99
2019-04-11T03:43:00.297Z,99.99
2019-04-11T03:43:53.919Z,99.99
2019-04-11T03:44:48.141Z,99.99
2019-04-11T03:46:01.320Z,99.99
2019-04-11T03:47:03.326Z,99.99
2019-04-11T03:47:57.605Z,99.99
2019-04-11T03:48:55.750Z,99.99
2019-04-11T03:49:51.115Z,99.99
2019-04-11T03:50:42.626Z,99.99
2019-04-11T03:51:43.653Z,99.99
2019-04-11T03:52:43.029Z,99.99
2019-04-11T03:53:43.197Z,99.99
2019-04-11T03:54:42.660Z,99.99
2019-04-11T03:55:43.424Z,99.99
2019-04-11T03:56:43.342Z,99.99
2019-04-11T03:57:42.203Z,99.99
2019-04-11T03:58:42.304Z,99.99
2019-04-11T03:59:41.617Z,99.99
2019-04-11T04:00:44.405Z,99.99
2019-04-11T04:01:42.426Z,99.99
2019-04-11T04:02:41.530Z,99.99
2019-04-11T04:03:42.556Z,99.99
2019-04-11T04:04:41.545Z,99.99
2019-04-11T04:05:42.167Z,99.99
2019-04-11T04:06:41.475Z,99.99
2019-04-11T04:07:40.944Z,99.99
2019-04-11T04:08:42.331Z,99.99
2019-04-11T04:09:41.738Z,99.99
2019-04-11T04:10:41.772Z,99.99
2019-04-11T04:11:40.972Z,99.99
2019-04-11T04:12:40.538Z,99.99
2019-04-11T04:13:40.449Z,99.99
2019-04-11T04:14:42.882Z,99.99
2019-04-11T04:15:54.080Z,99.99
2019-04-11T04:16:45.684Z,99.99
2019-04-11T04:17:41.311Z,99.99
2019-04-11T04:18:40.391Z,99.99
2019-04-11T04:19:40.255Z,99.99
2019-04-11T04:20:41.842Z,99.99
2019-04-11T04:21:40.749Z,99.99
2019-04-11T04:22:39.804Z,99.99
2019-04-11T04:23:40.919Z,99.99
2019-04-11T04:24:40.573Z,99.99
2019-04-11T04:25:42.665Z,99.99
2019-04-11T04:26:41.049Z,99.99
2019-04-11T04:27:40.884Z,99.99
2019-04-11T04:28:40.856Z,99.99
2019-04-11T04:29:39.007Z,99.99
2019-04-11T04:30:40.611Z,99.99
2019-04-11T04:31:40.493Z,99.99
2019-04-11T04:32:40.145Z,99.99
2019-04-11T04:33:40.059Z,99.99
2019-04-11T04:34:40.139Z,99.99
2019-04-11T04:35:40.156Z,99.99
2019-04-11T04:36:40.183Z,99.99
2019-04-11T04:37:38.759Z,99.99
2019-04-11T04:38:39.622Z,99.99
2019-04-11T04:39:39.624Z,99.99
2019-04-11T04:40:53.804Z,99.99
2019-04-11T04:41:43.767Z,99.99
2019-04-11T04:42:44.444Z,99.99
2019-04-11T04:43:38.796Z,99.99
2019-04-11T04:44:38.061Z,99.99
2019-04-11T04:45:57.843Z,99.99
2019-04-11T04:46:52.864Z,99.99
2019-04-11T04:47:46.482Z,99.99
2019-04-11T04:48:38.055Z,99.99
2019-04-11T04:49:38.861Z,99.99
2019-04-11T04:50:39.267Z,99.99
2019-04-11T04:51:37.299Z,99.99
2019-04-11T04:52:38.219Z,99.99
2019-04-11T04:53:36.923Z,99.99
2019-04-11T04:54:38.508Z,99.99
2019-04-11T04:55:36.863Z,99.99
2019-04-11T04:56:37.519Z,99.99
2019-04-11T04:57:37.680Z,99.99
2019-04-11T04:58:37.862Z,99.99
2019-04-11T04:59:38.424Z,99.99
2019-04-11T05:00:37.674Z,99.99
2019-04-11T05:01:37.362Z,99.99
2019-04-11T05:02:37.400Z,99.99
2019-04-11T05:03:36.024Z,99.99
2019-04-11T05:04:36.218Z,99.99
2019-04-11T05:05:35.899Z,99.99
2019-04-11T05:06:36.501Z,99.99
2019-04-11T05:07:40.198Z,99.99
2019-04-11T05:08:35.588Z,99.99
2019-04-11T05:09:36.143Z,99.99
2019-04-11T05:10:35.914Z,99.99
2019-04-11T05:11:36.145Z,99.99
2019-04-11T05:12:36.569Z,99.99
2019-04-11T05:13:36.664Z,99.99
2019-04-11T05:14:35.198Z,99.99
2019-04-11T05:15:34.972Z,99.99
2019-04-11T05:16:35.763Z,99.99
2019-04-11T05:17:35.994Z,99.99
2019-04-11T05:18:34.717Z,99.99
2019-04-11T05:19:34.619Z,99.99
2019-04-11T05:20:34.535Z,99.99
2019-04-11T05:21:35.184Z,99.99
2019-04-11T05:22:35.211Z,99.99
2019-04-11T05:23:34.273Z,99.99
2019-04-11T05:24:34.822Z,99.99
2019-04-11T05:25:34.829Z,99.99
2019-04-11T05:26:34.005Z,99.99
2019-04-11T05:27:33.917Z,99.99
2019-04-11T05:28:33.831Z,99.99
2019-04-11T05:29:33.744Z,99.99
2019-04-11T05:30:33.657Z,99.99
2019-04-11T05:31:34.445Z,99.99
2019-04-11T05:32:33.574Z,99.99
2019-04-11T05:33:33.393Z,99.99
2019-04-11T05:34:33.304Z,99.99
2019-04-11T05:35:34.388Z,99.99
2019-04-11T05:36:33.128Z,99.99
2019-04-11T05:37:33.342Z,99.99
2019-04-11T05:38:32.954Z,99.99
2019-04-11T05:39:33.845Z,99.99
2019-04-11T05:40:32.780Z,99.99
2019-04-11T05:41:33.524Z,99.99
2019-04-11T05:42:33.392Z,99.99
2019-04-11T05:43:37.227Z,99.99
2019-04-11T05:44:32.660Z,99.99
2019-04-11T05:45:32.341Z,99.99
2019-04-11T05:46:40.888Z,99.99
2019-04-11T05:47:32.172Z,99.99
2019-04-11T05:48:32.078Z,99.99
2019-04-11T05:49:36.550Z,99.99
2019-04-11T05:50:32.094Z,99.99
2019-04-11T05:51:36.900Z,99.99
2019-04-11T05:52:32.607Z,99.99
2019-04-11T05:53:33.581Z,99.99
2019-04-11T05:54:31.553Z,99.99
2019-04-11T05:55:32.105Z,99.99
2019-04-11T05:56:31.378Z,99.99
2019-04-11T05:57:35.448Z,99.99
2019-04-11T05:58:32.415Z,99.99
2019-04-11T05:59:31.116Z,99.99
2019-04-11T06:00:31.029Z,99.99
2019-04-11T06:01:30.941Z,99.99
2019-04-11T06:02:30.982Z,99.99
2019-04-11T06:03:30.770Z,99.99
2019-04-11T06:04:30.686Z,99.99
2019-04-11T06:05:32.952Z,99.99
2019-04-11T06:06:36.359Z,99.99
2019-04-11T06:07:30.420Z,99.99
2019-04-11T06:08:31.846Z,99.99
2019-04-11T06:09:33.783Z,99.99
2019-04-11T06:10:30.331Z,99.99
2019-04-11T06:11:30.614Z,99.99
2019-04-11T06:12:29.987Z,99.99
2019-04-11T06:13:29.899Z,99.99
2019-04-11T06:14:29.811Z,99.99
2019-04-11T06:15:29.729Z,99.99
2019-04-11T06:16:38.896Z,99.99
2019-04-11T06:17:30.129Z,99.99
2019-04-11T06:18:33.187Z,99.99
2019-04-11T06:19:30.483Z,99.99
2019-04-11T06:20:29.316Z,99.99
2019-04-11T06:21:29.206Z,99.99
2019-04-11T06:22:29.710Z,99.99
2019-04-11T06:23:29.610Z,99.99
2019-04-11T06:24:28.949Z,99.99
2019-04-11T06:25:30.930Z,99.99
2019-04-11T06:26:28.775Z,99.99
2019-04-11T06:27:28.755Z,99.99
2019-04-11T06:28:28.887Z,99.99
2019-04-11T06:29:29.943Z,99.99
2019-04-11T06:30:28.461Z,99.99
2019-04-11T06:31:28.346Z,99.99
2019-04-11T06:32:28.257Z,99.99
2019-04-11T06:33:28.876Z,99.99
2019-04-11T06:34:28.182Z,99.99
2019-04-11T06:35:28.248Z,99.99
2019-04-11T06:36:28.202Z,99.99
2019-04-11T06:37:27.830Z,99.99
2019-04-11T06:38:27.748Z,99.99
2019-04-11T06:39:27.655Z,99.99
2019-04-11T06:40:27.702Z,99.99
2019-04-11T06:41:27.484Z,99.99
2019-04-11T06:42:28.641Z,99.99
2019-04-11T06:43:27.828Z,99.99
2019-04-11T06:44:27.976Z,99.99
2019-04-11T06:45:27.321Z,99.99
2019-04-11T06:46:27.236Z,99.99
2019-04-11T06:47:27.211Z,99.99
2019-04-11T06:48:26.885Z,99.99
2019-04-11T06:49:26.798Z,99.99
2019-04-11T06:50:27.117Z,99.99
2019-04-11T06:51:26.630Z,99.99
2019-04-11T06:52:26.638Z,99.99
2019-04-11T06:53:26.459Z,99.99
2019-04-11T06:54:26.373Z,99.99
2019-04-11T06:55:26.744Z,99.99
2019-04-11T06:56:27.301Z,99.99
2019-04-11T06:57:26.117Z,99.99
2019-04-11T06:58:26.034Z,98.77
2019-04-11T06:59:26.146Z,98.87
2019-04-11T07:00:25.863Z,97.26
2019-04-11T07:01:25.931Z,96.59
2019-04-11T07:02:25.712Z,97.88
2019-04-11T07:03:28.655Z,97.50
2019-04-11T07:04:25.524Z,95.12
2019-04-11T07:05:26.654Z,91.61
2019-04-11T07:06:25.355Z,89.72
2019-04-11T07:07:27.587Z,88.58
2019-04-11T07:08:25.186Z,87.82
2019-04-11T07:09:25.415Z,89.81
2019-04-11T07:10:25.018Z,89.95
2019-04-11T07:11:25.542Z,88.62
2019-04-11T07:12:24.848Z,86.91
2019-04-11T07:13:24.849Z,83.88
2019-04-11T07:14:24.769Z,83.78
2019-04-11T07:15:25.108Z,86.39
2019-04-11T07:16:25.409Z,86.96
2019-04-11T07:17:24.428Z,86.77
2019-04-11T07:18:24.811Z,84.59
2019-04-11T07:19:24.259Z,81.65
2019-04-11T07:20:25.026Z,80.41
2019-04-11T07:21:24.092Z,83.07
2019-04-11T07:22:25.161Z,81.84
2019-04-11T07:23:24.314Z,81.26
2019-04-11T07:24:24.732Z,79.94
2019-04-11T07:25:23.758Z,79.36
2019-04-11T07:26:23.673Z,81.36
2019-04-11T07:27:23.839Z,81.26
2019-04-11T07:28:23.507Z,78.99
2019-04-11T07:29:23.927Z,79.17
2019-04-11T07:30:25.140Z,79.17
2019-04-11T07:31:23.397Z,79.17
2019-04-11T07:32:23.173Z,79.27
2019-04-11T07:33:23.089Z,78.03
2019-04-11T07:34:24.137Z,77.94
2019-04-11T07:35:22.926Z,78.89
2019-04-11T07:36:22.852Z,79.17
2019-04-11T07:37:23.524Z,80.22
2019-04-11T07:38:22.826Z,79.88
2019-04-11T07:39:22.638Z,80.35
2019-04-11T07:40:23.990Z,79.22
2019-04-11T07:41:23.807Z,77.79
2019-04-11T07:42:23.890Z,74.75
2019-04-11T07:43:22.591Z,77.12
2019-04-11T07:44:22.173Z,77.60
2019-04-11T07:45:23.105Z,80.74
2019-04-11T07:46:22.219Z,77.98
2019-04-11T07:47:24.946Z,78.27
2019-04-11T07:48:21.841Z,74.75
2019-04-11T07:49:21.756Z,74.85
2019-04-11T07:50:21.674Z,75.60
2019-04-11T07:51:21.591Z,74.37
2019-04-11T07:52:21.552Z,73.80
2019-04-11T07:53:21.728Z,73.23
2019-04-11T07:54:22.346Z,72.38
2019-04-11T07:55:21.260Z,71.62
2019-04-11T07:56:21.177Z,71.84
2019-04-11T07:57:21.093Z,71.94
2019-04-11T07:58:21.719Z,71.18
2019-04-11T07:59:21.709Z,71.08
2019-04-11T08:00:36.110Z,71.84
2019-04-11T08:01:21.159Z,72.70
2019-04-11T08:02:23.646Z,69.56
2019-04-11T08:03:21.406Z,69.18
2019-04-11T08:04:21.623Z,68.80
2019-04-11T08:05:21.493Z,68.39
2019-04-11T08:06:20.348Z,69.75
2019-04-11T08:07:20.267Z,70.89
2019-04-11T08:08:21.382Z,69.46
2019-04-11T08:09:20.100Z,71.08
2019-04-11T08:10:20.566Z,69.46
2019-04-11T08:11:19.938Z,68.04
2019-04-11T08:12:19.852Z,67.76
2019-04-11T08:13:20.682Z,67.85
2019-04-11T08:14:20.257Z,68.42
2019-04-11T08:15:19.697Z,68.13
2019-04-11T08:16:20.398Z,67.82
2019-04-11T08:17:28.169Z,68.29
2019-04-11T08:18:19.357Z,67.91
2019-04-11T08:19:20.975Z,70.00
2019-04-11T08:20:19.427Z,69.09
2019-04-11T08:21:19.923Z,67.76
2019-04-11T08:22:19.131Z,67.57
2019-04-11T08:23:19.414Z,66.96
2019-04-11T08:24:18.864Z,68.04
2019-04-11T08:25:18.780Z,69.66
2019-04-11T08:26:19.845Z,68.90
2019-04-11T08:27:19.654Z,70.04
2019-04-11T08:28:18.610Z,67.47
2019-04-11T08:29:18.449Z,66.80
2019-04-11T08:30:19.076Z,66.42
2019-04-11T08:31:19.375Z,66.33
2019-04-11T08:32:18.204Z,65.76
2019-04-11T08:33:18.379Z,66.52
2019-04-11T08:34:18.038Z,65.76
2019-04-11T08:35:17.956Z,66.52
2019-04-11T08:36:17.874Z,67.00
2019-04-11T08:37:19.224Z,66.52
2019-04-11T08:38:18.528Z,65.76
2019-04-11T08:39:17.630Z,65.00
2019-04-11T08:40:17.763Z,64.81
2019-04-11T08:41:17.679Z,64.72
2019-04-11T08:42:17.378Z,64.90
2019-04-11T08:43:17.296Z,64.90
2019-04-11T08:44:17.480Z,65.38
2019-04-11T08:45:17.506Z,64.81
2019-04-11T08:46:17.048Z,65.86
2019-04-11T08:47:18.239Z,65.67
2019-04-11T08:48:17.094Z,65.19
2019-04-11T08:49:17.328Z,64.53
2019-04-11T08:50:16.719Z,64.81
2019-04-11T08:51:16.986Z,63.67
2019-04-11T08:52:16.555Z,63.48
2019-04-11T08:53:16.471Z,63.20
2019-04-11T08:54:17.414Z,63.57
2019-04-11T08:55:17.254Z,65.99
2019-04-11T08:56:16.227Z,64.75
2019-04-11T08:57:16.144Z,62.37
2019-04-11T08:58:16.233Z,62.37
2019-04-11T08:59:15.979Z,62.46
2019-04-11T09:00:15.897Z,65.22
2019-04-11T09:01:15.949Z,65.32
2019-04-11T09:02:16.376Z,63.76
2019-04-11T09:03:15.651Z,63.01
2019-04-11T09:04:16.693Z,63.23
2019-04-11T09:05:18.239Z,62.43
2019-04-11T09:06:16.619Z,62.43
2019-04-11T09:07:15.322Z,62.43
2019-04-11T09:08:16.387Z,62.62
2019-04-11T09:09:15.379Z,62.62
2019-04-11T09:10:15.750Z,62.81
2019-04-11T09:11:14.993Z,62.81
2019-04-11T09:12:15.099Z,63.60
2019-04-11T09:13:15.297Z,61.99
2019-04-11T09:14:15.763Z,62.56
2019-04-11T09:15:14.863Z,62.37
2019-04-11T09:16:15.212Z,64.75
2019-04-11T09:17:14.849Z,63.42
2019-04-11T09:18:15.363Z,63.79
2019-04-11T09:19:14.695Z,62.65
2019-04-11T09:20:14.253Z,60.85
2019-04-11T09:21:14.171Z,60.85
2019-04-11T09:22:15.117Z,61.64
2019-04-11T09:23:14.016Z,63.64
2019-04-11T09:24:15.267Z,62.88
2019-04-11T09:25:14.806Z,62.40
2019-04-11T09:26:13.995Z,61.80
2019-04-11T09:27:14.300Z,62.78
2019-04-11T09:28:13.595Z,61.83
2019-04-11T09:29:13.653Z,63.07
2019-04-11T09:30:15.607Z,60.88
2019-04-11T09:31:15.152Z,61.64
2019-04-11T09:32:13.271Z,62.02
2019-04-11T09:33:13.186Z,63.54
2019-04-11T09:34:13.323Z,61.74
2019-04-11T09:35:13.024Z,58.59
2019-04-11T09:36:13.442Z,57.90
2019-04-11T09:37:15.600Z,58.79
2019-04-11T09:38:13.884Z,59.64
2019-04-11T09:39:12.921Z,59.07
2019-04-11T09:40:12.629Z,61.07
2019-04-11T09:41:12.533Z,60.91
2019-04-11T09:42:13.437Z,58.79
2019-04-11T09:43:12.467Z,57.26
2019-04-11T09:44:12.825Z,56.79
2019-04-11T09:45:13.130Z,57.17
2019-04-11T09:46:12.489Z,58.88
2019-04-11T09:47:12.045Z,59.36
2019-04-11T09:48:15.296Z,58.22
2019-04-11T09:49:12.355Z,58.22
2019-04-11T09:50:11.890Z,57.17
2019-04-11T09:51:11.719Z,57.07
2019-04-11T09:52:12.227Z,56.95
2019-04-11T09:53:12.105Z,58.69
2019-04-11T09:54:12.076Z,59.74
2019-04-11T09:55:11.395Z,60.12
2019-04-11T09:56:11.311Z,59.55
2019-04-11T09:57:12.124Z,58.31
2019-04-11T09:58:11.175Z,59.64
2019-04-11T09:59:12.206Z,58.31
2019-04-11T10:00:12.279Z,58.40
2019-04-11T10:01:10.903Z,59.39
2019-04-11T10:02:11.052Z,59.86
2019-04-11T10:03:10.838Z,59.48
2019-04-11T10:04:10.870Z,60.63
2019-04-11T10:05:10.576Z,58.62
2019-04-11T10:06:12.261Z,58.53
2019-04-11T10:07:11.137Z,59.01
2019-04-11T10:08:10.644Z,56.53
2019-04-11T10:09:11.371Z,56.44
2019-04-11T10:10:10.803Z,55.01
2019-04-11T10:11:10.224Z,56.46
2019-04-11T10:12:10.010Z,55.39
2019-04-11T10:13:10.848Z,55.10
2019-04-11T10:14:10.067Z,55.20
2019-04-11T10:15:09.766Z,54.44
2019-04-11T10:16:09.773Z,57.96
2019-04-11T10:17:10.657Z,58.91
2019-04-11T10:18:20.159Z,58.08
2019-04-11T10:19:09.490Z,56.46
2019-04-11T10:20:10.613Z,56.56
2019-04-11T10:21:09.280Z,56.18
2019-04-11T10:22:09.200Z,55.20
2019-04-11T10:23:10.256Z,54.47
2019-04-11T10:24:09.475Z,54.35
2019-04-11T10:25:08.957Z,55.01
2019-04-11T10:26:09.723Z,58.84
2019-04-11T10:27:08.851Z,57.60
2019-04-11T10:28:09.198Z,55.13
2019-04-11T10:29:08.732Z,54.47
2019-04-11T10:30:08.719Z,56.56
2019-04-11T10:31:08.722Z,55.13
2019-04-11T10:32:08.740Z,55.51
2019-04-11T10:33:08.792Z,55.51
2019-04-11T10:34:09.184Z,53.52
2019-04-11T10:35:08.256Z,52.66
2019-04-11T10:36:08.073Z,53.32
2019-04-11T10:37:07.990Z,54.21
2019-04-11T10:38:08.525Z,55.07
2019-04-11T10:39:08.979Z,54.21
2019-04-11T10:40:08.095Z,55.44
2019-04-11T10:41:08.354Z,55.83
2019-04-11T10:42:08.551Z,55.54
2019-04-11T10:43:07.781Z,56.59
2019-04-11T10:44:07.703Z,55.07
2019-04-11T10:45:07.352Z,53.64
2019-04-11T10:46:07.277Z,51.92
2019-04-11T10:47:08.804Z,50.94
2019-04-11T10:48:07.110Z,51.16
2019-04-11T10:49:07.513Z,51.82
2019-04-11T10:50:07.073Z,51.66
2019-04-11T10:51:06.871Z,53.56
2019-04-11T10:52:06.793Z,53.21
2019-04-11T10:53:06.888Z,53.02
2019-04-11T10:54:08.137Z,52.45
2019-04-11T10:55:06.557Z,50.38
2019-04-11T10:56:06.474Z,49.52
2019-04-11T10:57:07.495Z,51.90
2019-04-11T10:58:06.767Z,50.28
2019-04-11T10:59:07.109Z,49.78
2019-04-11T11:00:07.102Z,49.49
2019-04-11T11:01:07.398Z,49.68
2019-04-11T11:02:06.633Z,52.38
2019-04-11T11:03:06.234Z,51.93
2019-04-11T11:04:05.852Z,48.21
2019-04-11T11:06:05.696Z,46.66
2019-04-11T11:07:06.508Z,45.79
2019-04-11T11:08:05.542Z,47.89
2019-04-11T11:09:05.989Z,49.90
2019-04-11T11:10:05.388Z,49.78
2019-04-11T11:11:06.078Z,50.16
2019-04-11T11:12:05.238Z,50.07
2019-04-11T11:13:05.642Z,49.40
2019-04-11T11:14:05.086Z,47.97
2019-04-11T11:15:05.023Z,49.37
2019-04-11T11:16:05.838Z,48.80
2019-04-11T11:17:04.860Z,49.18
2019-04-11T11:18:34.954Z,48.80
2019-04-11T11:19:31.788Z,49.28
2019-04-11T11:20:16.779Z,49.85
2019-04-11T11:21:06.034Z,51.78
2019-04-11T11:22:05.045Z,51.02
2019-04-11T11:23:09.076Z,50.73
2019-04-11T11:24:07.197Z,51.59
2019-04-11T11:25:04.321Z,51.21
2019-04-11T11:26:04.875Z,50.35
2019-04-11T11:27:05.640Z,51.50
2019-04-11T11:28:05.248Z,50.38
2019-04-11T11:29:07.388Z,49.13
2019-04-11T11:30:04.903Z,47.89
2019-04-11T11:31:03.805Z,47.61
2019-04-11T11:32:05.018Z,49.16
2019-04-11T11:33:03.686Z,49.66
2019-04-11T11:34:03.581Z,47.94
2019-04-11T11:35:03.518Z,45.87
2019-04-11T11:36:08.977Z,46.53
2019-04-11T11:37:03.363Z,44.65
2019-04-11T11:38:03.896Z,43.59
2019-04-11T11:39:03.214Z,44.36
2019-04-11T11:40:12.853Z,43.21
2019-04-11T11:42:58.779Z,41.87
2019-04-11T11:43:59.198Z,42.64
2019-04-11T11:45:02.598Z,44.55
2019-04-11T11:47:06.557Z,44.43
2019-04-11T11:48:13.656Z,42.97
2019-04-11T11:49:06.425Z,42.13
2019-04-11T11:50:07.433Z,43.87
2019-04-11T11:51:05.478Z,41.74
2019-04-11T11:52:05.001Z,41.96
2019-04-11T11:53:09.624Z,41.13
2019-04-11T11:54:05.154Z,39.79
2019-04-11T11:55:57.937Z,39.54
2019-04-11T11:56:58.210Z,38.20
2019-04-11T11:57:57.286Z,37.64
2019-04-11T11:58:59.311Z,36.11
2019-04-11T12:00:39.511Z,36.38
2019-04-11T12:01:42.248Z,35.61
2019-04-11T12:02:39.380Z,36.07
2019-04-11T12:03:40.705Z,38.37
2019-04-11T12:04:40.421Z,39.47
2019-04-11T12:05:39.224Z,36.80
2019-04-11T12:06:39.119Z,36.20
2019-04-11T12:07:39.370Z,36.57
2019-04-11T12:08:39.239Z,35.80
2019-04-11T12:09:38.921Z,36.78
2019-04-11T12:10:39.520Z,36.88
2019-04-11T12:11:39.780Z,35.91
2019-04-11T12:12:39.690Z,36.40
2019-04-11T12:13:40.588Z,35.53
2019-04-11T12:14:39.897Z,36.01
2019-04-11T12:15:39.283Z,36.13
2019-04-11T12:16:39.615Z,35.45
2019-04-11T12:17:41.096Z,35.05
2019-04-11T12:18:44.909Z,34.67
2019-04-11T12:19:47.665Z,36.90
2019-04-11T12:20:39.414Z,36.47
2019-04-11T12:21:38.867Z,34.82
2019-04-11T12:22:38.089Z,34.44
2019-04-11T12:23:49.501Z,34.61
2019-04-11T12:24:38.694Z,35.28
2019-04-11T12:25:38.986Z,36.46
2019-04-11T12:26:37.952Z,35.42
2019-04-11T12:27:39.962Z,35.61
2019-04-11T12:28:38.968Z,33.50
2019-04-11T12:29:38.604Z,34.65
2019-04-11T12:30:37.575Z,35.86
2019-04-11T12:31:37.561Z,36.93
2019-04-11T12:32:37.446Z,35.59
2019-04-11T12:33:37.479Z,35.61
2019-04-11T12:34:38.449Z,36.70
2019-04-11T12:35:38.027Z,35.06
2019-04-11T12:36:39.448Z,33.44
2019-04-11T12:37:37.844Z,33.15
2019-04-11T12:38:37.055Z,34.95
2019-04-11T12:39:36.990Z,35.89
2019-04-11T12:40:36.925Z,35.71
2019-04-11T12:41:36.861Z,37.84
2019-04-11T12:42:36.800Z,37.27
2019-04-11T12:43:36.733Z,34.97
2019-04-11T12:44:36.667Z,36.80
2019-04-11T12:45:36.603Z,37.10
2019-04-11T12:46:36.537Z,34.11
2019-04-11T12:47:38.566Z,35.47
2019-04-11T12:48:36.408Z,34.89
2019-04-11T12:49:36.344Z,33.24
2019-04-11T12:50:36.283Z,32.17
2019-04-11T12:51:36.214Z,33.61
2019-04-11T12:52:36.150Z,33.51
2019-04-11T12:53:36.086Z,33.11
2019-04-11T12:54:36.022Z,34.88
2019-04-11T12:55:35.956Z,34.80
2019-04-11T12:56:35.898Z,32.76
2019-04-11T12:57:35.827Z,32.49
2019-04-11T12:58:35.765Z,33.45
2019-04-11T12:59:35.699Z,33.75
2019-04-11T13:00:35.635Z,34.62
2019-04-11T13:01:35.572Z,31.34
2019-04-11T13:02:35.506Z,33.32
2019-04-11T13:03:35.443Z,32.46
2019-04-11T13:04:35.379Z,33.59
2019-04-11T13:05:35.316Z,33.58
2019-04-11T13:06:35.850Z,33.27
2019-04-11T13:07:35.189Z,35.30
2019-04-11T13:08:35.121Z,35.42
2019-04-11T13:09:35.056Z,35.32
2019-04-11T13:10:34.992Z,34.67